createdAt,value
2019-02-26T00:00:51.946Z,19.25
2019-02-26T00:06:01.535Z,20.61
2019-02-26T00:11:09.059Z,20.50
2019-02-26T00:16:18.376Z,20.06
2019-02-26T00:21:26.362Z,20.09
2019-02-26T00:26:34.170Z,18.83
2019-02-26T00:31:43.412Z,19.44
2019-02-26T00:36:51.050Z,19.24
2019-02-26T00:42:00.847Z,19.52
2019-02-26T00:47:09.182Z,19.26
2019-02-26T00:52:17.974Z,19.10
2019-02-26T00:57:29.468Z,19.32
2019-02-26T01:02:27.181Z,18.91
2019-02-26T01:07:36.954Z,19.58
2019-02-26T01:12:46.664Z,19.24
2019-02-26T01:17:58.930Z,18.13
2019-02-26T01:22:56.516Z,18.00
2019-02-26T01:28:05.571Z,18.57
2019-02-26T01:38:23.798Z,19.13
2019-02-26T01:43:23.346Z,17.55
2019-02-26T01:48:34.314Z,17.86
2019-02-26T01:53:39.260Z,17.80
2019-02-26T01:58:56.327Z,17.63
2019-02-26T02:03:57.251Z,17.90
2019-02-26T02:09:09.304Z,17.74
2019-02-26T02:14:17.064Z,17.63
2019-02-26T02:19:25.681Z,17.43
2019-02-26T02:24:32.728Z,17.39
2019-02-26T02:29:43.806Z,17.90
2019-02-26T02:34:49.968Z,18.59
2019-02-26T02:39:58.846Z,17.45
2019-02-26T02:45:10.485Z,18.54
2019-02-26T02:50:18.444Z,18.06
2019-02-26T02:55:24.958Z,18.18
2019-02-26T03:00:34.464Z,17.62
2019-02-26T03:05:43.831Z,17.57
2019-02-26T03:10:50.778Z,17.66
2019-02-26T03:16:01.525Z,18.28
2019-02-26T03:21:09.728Z,17.86
2019-02-26T03:26:12.568Z,18.72
2019-02-26T03:31:17.325Z,18.50
2019-02-26T03:36:26.246Z,17.87
2019-02-26T03:41:35.165Z,18.96
2019-02-26T03:46:44.103Z,17.86
2019-02-26T03:51:52.958Z,18.95
2019-02-26T03:57:01.825Z,18.77
2019-02-26T04:02:09.367Z,19.47
2019-02-26T04:07:17.644Z,19.39
2019-02-26T04:12:26.515Z,19.93
2019-02-26T04:17:36.917Z,19.40
2019-02-26T04:22:50.099Z,20.31
2019-02-26T04:27:45.890Z,20.21
2019-02-26T04:32:54.754Z,19.63
2019-02-26T04:38:06.315Z,18.53
2019-02-26T04:43:13.266Z,17.42
2019-02-26T04:48:23.611Z,17.64
2019-02-26T04:53:31.281Z,18.33
2019-02-26T04:58:41.905Z,17.76
2019-02-26T05:03:47.334Z,18.67
2019-02-26T05:08:59.340Z,18.27
2019-02-26T05:14:06.710Z,18.04
2019-02-26T05:19:14.584Z,17.45
2019-02-26T05:24:23.762Z,16.75
2019-02-26T05:29:29.744Z,17.13
2019-02-26T05:34:40.008Z,16.54
2019-02-26T05:39:49.068Z,17.77
2019-02-26T05:44:59.071Z,17.75
2019-02-26T05:50:06.397Z,18.15
2019-02-26T05:55:16.394Z,17.12
2019-02-26T06:00:22.712Z,18.34
2019-02-26T06:05:29.453Z,18.95
2019-02-26T06:10:38.270Z,18.02
2019-02-26T06:15:47.127Z,17.60
2019-02-26T06:20:58.371Z,17.17
2019-02-26T06:26:08.923Z,18.02
2019-02-26T06:31:14.634Z,18.12
2019-02-26T06:36:23.074Z,17.95
2019-02-26T06:41:29.488Z,17.71
2019-02-26T06:46:38.424Z,17.74
2019-02-26T06:51:47.889Z,17.74
2019-02-26T06:56:55.722Z,18.66
2019-02-26T07:02:04.602Z,18.36
2019-02-26T07:07:14.309Z,18.14
2019-02-26T07:12:23.929Z,17.63
2019-02-26T07:17:33.709Z,16.80
2019-02-26T07:22:39.821Z,17.52
2019-02-26T07:27:47.203Z,17.62
2019-02-26T07:32:56.033Z,18.71
2019-02-26T07:38:04.996Z,18.45
2019-02-26T07:43:15.386Z,18.47
2019-02-26T07:48:23.801Z,18.80
2019-02-26T07:53:30.635Z,17.12
2019-02-26T07:58:40.816Z,19.75
2019-02-26T08:03:48.788Z,16.25
2019-02-26T08:08:56.231Z,16.70
2019-02-26T08:14:05.259Z,16.46
2019-02-26T08:19:16.002Z,16.88
2019-02-26T08:24:19.410Z,18.28
2019-02-26T08:29:15.598Z,17.51
2019-02-26T08:34:24.404Z,17.50
2019-02-26T08:39:35.616Z,16.58
2019-02-26T08:44:41.684Z,16.44
2019-02-26T08:49:50.876Z,16.71
2019-02-26T08:54:59.760Z,16.35
2019-02-26T09:00:08.700Z,17.03
2019-02-26T09:05:17.556Z,16.54
2019-02-26T09:10:26.489Z,16.20
2019-02-26T09:15:35.999Z,16.90
2019-02-26T09:20:43.773Z,16.67
2019-02-26T09:25:56.610Z,17.16
2019-02-26T09:31:03.718Z,18.25
2019-02-26T09:36:12.657Z,17.39
2019-02-26T09:41:19.397Z,17.80
2019-02-26T09:46:26.249Z,17.48
2019-02-26T09:51:35.252Z,16.60
2019-02-26T09:56:43.558Z,17.84
2019-02-26T10:01:54.152Z,17.81
2019-02-26T10:07:02.260Z,18.19
2019-02-26T10:12:10.642Z,19.36
2019-02-26T10:17:19.237Z,18.13
2019-02-26T10:22:26.614Z,18.12
2019-02-26T10:27:36.151Z,18.75
2019-02-26T10:32:44.097Z,18.56
2019-02-26T10:37:51.255Z,19.51
2019-02-26T10:43:00.196Z,19.60
2019-02-26T10:48:09.027Z,20.24
2019-02-26T10:53:20.365Z,20.04
2019-02-26T10:58:26.631Z,20.67
2019-02-26T11:03:38.044Z,20.58
2019-02-26T11:08:43.920Z,20.48
2019-02-26T11:13:53.831Z,20.24
2019-02-26T11:19:02.383Z,19.92
2019-02-26T11:24:11.201Z,20.62
2019-02-26T11:29:18.445Z,19.97
2019-02-26T11:34:28.547Z,20.28
2019-02-26T11:39:35.927Z,20.42
2019-02-26T11:44:44.870Z,20.57
2019-02-26T11:49:53.768Z,20.32
2019-02-26T11:55:05.780Z,20.03
2019-02-26T12:00:11.020Z,19.92
2019-02-26T12:05:20.001Z,20.01
2019-02-26T12:10:31.824Z,19.67
2019-02-26T12:15:39.873Z,20.17
2019-02-26T12:20:48.748Z,20.84
2019-02-26T12:25:47.201Z,21.11
2019-02-26T12:30:54.792Z,20.40
2019-02-26T12:36:21.223Z,20.23
2019-02-26T12:41:08.754Z,20.26
2019-02-26T12:46:14.714Z,19.70
2019-02-26T12:51:27.620Z,20.25
2019-02-26T12:56:34.136Z,20.15
2019-02-26T13:01:42.560Z,20.60
2019-02-26T13:06:51.744Z,21.52
2019-02-26T13:12:02.432Z,21.43
2019-02-26T13:17:08.948Z,21.52
2019-02-26T13:22:11.927Z,21.94
2019-02-26T13:27:16.472Z,22.29
2019-02-26T13:32:32.276Z,21.40
2019-02-26T13:37:27.898Z,21.75
2019-02-26T13:42:33.402Z,21.89
2019-02-26T13:47:42.334Z,22.08
2019-02-26T13:52:51.174Z,21.36
2019-02-26T13:58:04.768Z,21.62
2019-02-26T14:03:09.466Z,21.95
2019-02-26T14:08:18.480Z,22.17
2019-02-26T14:13:27.542Z,21.96
2019-02-26T14:18:37.636Z,22.15
2019-02-26T14:23:46.097Z,22.57
2019-02-26T14:28:55.004Z,21.46
2019-02-26T14:34:05.129Z,20.50
2019-02-26T14:39:04.123Z,20.03
2019-02-26T14:44:12.981Z,20.62
2019-02-26T14:49:21.855Z,21.47
2019-02-26T14:54:30.774Z,21.15
2019-02-26T14:59:39.935Z,21.43
2019-02-26T15:04:48.796Z,20.26
2019-02-26T15:09:57.767Z,20.47
2019-02-26T15:15:05.643Z,18.92
2019-02-26T15:20:14.596Z,19.25
2019-02-26T15:25:24.578Z,19.21
2019-02-26T15:30:33.550Z,20.22
2019-02-26T15:35:42.438Z,19.64
2019-02-26T15:40:53.292Z,20.07
2019-02-26T15:46:00.347Z,19.34
2019-02-26T15:51:14.453Z,20.61
2019-02-26T15:56:20.065Z,19.68
2019-02-26T16:01:19.235Z,18.45
2019-02-26T16:06:28.100Z,18.85
2019-02-26T16:11:37.046Z,19.58
2019-02-26T16:16:45.932Z,18.82
2019-02-26T16:21:54.942Z,18.33
2019-02-26T16:27:04.672Z,18.34
2019-02-26T16:32:13.670Z,18.35
2019-02-26T16:37:21.381Z,29.34
2019-02-26T16:42:30.494Z,18.77
2019-02-26T16:47:41.369Z,18.03
2019-02-26T16:52:40.402Z,18.67
2019-02-26T16:57:50.443Z,18.07
2019-02-26T17:02:49.363Z,18.23
2019-02-26T17:07:58.324Z,17.94
2019-02-26T17:13:07.563Z,17.21
2019-02-26T17:18:16.662Z,16.15
2019-02-26T17:23:25.703Z,19.33
2019-02-26T17:28:34.678Z,20.44
2019-02-26T17:33:44.765Z,26.44
2019-02-26T17:38:52.233Z,15.55
2019-02-26T17:44:02.184Z,15.17
2019-02-26T17:49:09.609Z,19.37
2019-02-26T17:54:18.567Z,30.90
2019-02-26T17:59:27.728Z,14.15
2019-02-26T18:04:36.677Z,12.44
2019-02-26T18:09:45.508Z,11.56
2019-02-26T18:14:56.084Z,15.64
2019-02-26T18:20:03.143Z,13.21
2019-02-26T18:25:12.795Z,9.32
2019-02-26T18:30:21.619Z,10.10
2019-02-26T18:35:30.742Z,8.99
2019-02-26T18:40:41.577Z,9.54
2019-02-26T18:45:40.447Z,9.94
2019-02-26T18:50:50.302Z,9.89
2019-02-26T18:55:59.248Z,9.89
2019-02-26T19:01:08.528Z,11.29
2019-02-26T19:06:18.467Z,9.82
2019-02-26T19:11:27.686Z,10.02
2019-02-26T19:16:36.623Z,10.19
2019-02-26T19:21:45.547Z,11.08
2019-02-26T19:26:54.501Z,11.65
2019-02-26T19:32:03.417Z,12.32
2019-02-26T19:37:12.741Z,12.35
2019-02-26T19:42:21.703Z,12.52
2019-02-26T19:47:31.106Z,12.69
2019-02-26T19:52:40.249Z,19.95
2019-02-26T19:57:48.430Z,31.25
2019-02-26T20:02:57.260Z,13.47
2019-02-26T20:08:06.368Z,11.77
2019-02-26T20:13:15.209Z,10.38
2019-02-26T20:18:26.105Z,10.63
2019-02-26T20:23:33.090Z,10.83
2019-02-26T20:28:41.757Z,11.03
2019-02-26T21:54:16.437Z,15.04
2019-02-26T22:00:38.703Z,16.79
2019-02-26T22:05:42.919Z,12.71
2019-02-26T22:10:51.769Z,11.96
2019-02-26T22:16:01.288Z,12.81
2019-02-26T22:21:09.182Z,12.62
2019-02-26T22:26:18.214Z,13.55
2019-02-26T22:31:28.918Z,13.60
2019-02-26T22:36:36.252Z,13.42
2019-02-26T22:41:45.122Z,13.36
2019-02-26T22:46:54.066Z,14.46
2019-02-26T22:52:05.082Z,13.84
2019-02-26T22:57:03.982Z,14.62
2019-02-26T23:02:12.786Z,14.23
2019-02-26T23:07:21.693Z,13.85
2019-02-26T23:12:29.330Z,13.99
2019-02-26T23:17:37.285Z,13.95
2019-02-26T23:22:46.783Z,13.92
2019-02-26T23:27:54.234Z,14.26
2019-02-26T23:33:01.630Z,13.99
2019-02-26T23:38:10.545Z,13.37
2019-02-26T23:43:19.364Z,13.47
2019-02-26T23:48:31.396Z,13.74
2019-02-26T23:53:33.896Z,13.80
2019-02-26T23:58:38.651Z,13.97
